Time;durP1;ratioP1;P1;durP2;ratioP2;P2;SDS_P1;SDS_P2;PMS_P1;PMS_P2;Temp;Humidity;BMP_temperature;BMP_pressure;BME280_temperature;BME280_humidity;BME280_pressure;Samples;Min_cycle;Max_cycle;Signal;HPM_P1;HPM_P2
2022/12/03 00:00:28;;;;;;;34.13;20.85;;;;;;;1.21;96.85;102310.97;1023541;28;20863;-82
2022/12/03 00:01:00;;;;;;;30.63;18.98;;;;;;;1.21;96.40;102305.72;1027493;28;20421;-82
2022/12/03 00:01:31;;;;;;;32.92;20.60;;;;;;;1.21;96.79;102305.72;1032116;28;20388;-82
2022/12/03 00:02:03;;;;;;;33.22;19.88;;;;;;;1.19;96.86;102297.97;1031718;28;20759;-82
2022/12/03 00:02:34;;;;;;;35.63;21.10;;;;;;;1.20;96.51;102296.19;1031361;28;20297;-82
2022/12/03 00:03:06;;;;;;;32.85;21.85;;;;;;;1.20;96.23;102304.06;1027435;28;20460;-82
2022/12/03 00:03:38;;;;;;;36.45;21.27;;;;;;;1.19;96.76;102305.03;1027139;28;20365;-82
2022/12/03 00:04:10;;;;;;;34.78;20.40;;;;;;;1.20;96.84;102309.31;1027830;28;20306;-82
2022/12/03 00:04:42;;;;;;;30.13;19.73;;;;;;;1.19;96.67;102297.97;1027663;28;20385;-81
2022/12/03 00:05:13;;;;;;;33.90;22.13;;;;;;;1.20;97.16;102298.81;1028087;28;20397;-82
2022/12/03 00:05:45;;;;;;;41.33;21.33;;;;;;;1.20;97.10;102309.31;1027837;28;20306;-82
2022/12/03 00:06:19;;;;;;;30.45;20.88;;;;;;;1.20;96.96;102304.91;1032923;28;20385;-82
2022/12/03 00:06:51;;;;;;;33.13;20.67;;;;;;;1.21;97.03;102297.84;1031469;28;20392;-82
2022/12/03 00:07:22;;;;;;;30.58;19.75;;;;;;;1.19;97.24;102294.53;1032035;28;20373;-82
2022/12/03 00:07:54;;;;;;;31.30;19.63;;;;;;;1.18;96.93;102296.31;1035816;28;20288;-82
2022/12/03 00:08:26;;;;;;;37.00;21.20;;;;;;;1.17;97.16;102299.88;1031940;28;20321;-82
2022/12/03 00:08:57;;;;;;;37.53;22.90;;;;;;;1.20;96.63;102298.81;1030852;28;20297;-82
2022/12/03 00:09:28;;;;;;;35.33;21.00;;;;;;;1.19;96.54;102297.16;1031455;28;20376;-82
2022/12/03 00:10:00;;;;;;;36.10;20.30;;;;;;;1.19;97.18;102297.16;1027969;28;20985;-82
2022/12/03 00:10:32;;;;;;;32.95;20.00;;;;;;;1.18;96.83;102296.31;1031666;28;20300;-82
2022/12/03 00:11:03;;;;;;;33.97;20.27;;;;;;;1.16;96.48;102294.75;1031292;28;20807;-82
2022/12/03 00:11:35;;;;;;;32.67;20.08;;;;;;;1.16;97.16;102297.38;1029367;28;20384;-82
2022/12/03 00:12:06;;;;;;;32.60;18.50;;;;;;;1.16;97.01;102297.38;1034090;28;20355;-81
2022/12/03 00:12:38;;;;;;;32.30;22.10;;;;;;;1.16;97.11;102298.22;1034795;28;20387;-82
2022/12/03 00:13:09;;;;;;;33.20;20.42;;;;;;;1.18;97.14;102300.72;1043511;28;20315;-82
2022/12/03 00:13:41;;;;;;;33.15;20.42;;;;;;;1.17;97.30;102299.06;1039142;28;20307;-82
2022/12/03 00:14:12;;;;;;;30.42;19.42;;;;;;;1.18;96.89;102296.31;1035472;28;20348;-82
2022/12/03 00:14:44;;;;;;;32.25;20.23;;;;;;;1.20;97.12;102294.41;1035231;28;20694;-81
2022/12/03 00:15:15;;;;;;;32.30;21.15;;;;;;;1.18;97.45;102295.47;1035399;28;20308;-82
2022/12/03 00:15:47;;;;;;;34.67;21.45;;;;;;;1.19;96.85;102297.16;1035751;28;20299;-82
2022/12/03 00:16:18;;;;;;;34.33;21.45;;;;;;;1.18;97.69;102295.47;1036609;28;20332;-81
2022/12/03 00:16:50;;;;;;;31.98;19.77;;;;;;;1.19;97.69;102307.63;1034437;28;20297;-81
2022/12/03 00:17:22;;;;;;;36.25;22.60;;;;;;;1.20;97.93;102304.06;1035879;28;20868;-82
2022/12/03 00:17:53;;;;;;;30.42;19.98;;;;;;;1.20;97.87;102298.81;1031158;28;20344;-82
2022/12/03 00:18:25;;;;;;;36.00;22.10;;;;;;;1.21;97.34;102295.22;1032422;28;20392;-82
2022/12/03 00:18:56;;;;;;;30.45;19.73;;;;;;;1.21;97.38;102290.81;1034851;28;20305;-82
2022/12/03 00:19:28;;;;;;;34.78;20.67;;;;;;;1.21;97.80;102290.81;1032266;28;20316;-81
2022/12/03 00:19:59;;;;;;;30.88;20.98;;;;;;;1.23;97.97;102298.56;1038347;28;20296;-82
2022/12/03 00:20:31;;;;;;;34.25;21.70;;;;;;;1.19;97.65;102297.97;1038244;28;20440;-82
2022/12/03 00:21:03;;;;;;;32.40;21.65;;;;;;;1.20;97.52;102298.81;1032052;28;20300;-82
2022/12/03 00:21:35;;;;;;;33.28;21.02;;;;;;;1.19;97.95;102291.91;1030993;28;20757;-82
2022/12/03 00:22:06;;;;;;;33.67;21.55;;;;;;;1.18;97.76;102291.06;1023149;28;21744;-82
2022/12/03 00:22:38;;;;;;;35.33;21.95;;;;;;;1.21;97.67;102295.22;1024497;28;20338;-81
2022/12/03 00:23:09;;;;;;;30.90;19.58;;;;;;;1.23;97.78;102298.56;1032299;28;20689;-82
2022/12/03 00:23:41;;;;;;;35.92;21.08;;;;;;;1.20;98.41;102291.78;1035076;28;21560;-82
2022/12/03 00:24:13;;;;;;;34.00;21.70;;;;;;;1.20;98.13;102299.66;1031934;28;20297;-82
2022/12/03 00:24:44;;;;;;;33.03;20.25;;;;;;;1.19;97.95;102286.66;1032472;28;20301;-82
2022/12/03 00:25:16;;;;;;;38.24;21.54;;;;;;;1.18;97.98;102300.72;1039801;28;20358;-82
2022/12/03 00:25:47;;;;;;;37.88;21.45;;;;;;;1.17;98.27;102299.88;1039568;28;20052;-82
2022/12/03 00:26:19;;;;;;;31.98;20.67;;;;;;;1.17;98.27;102294.63;1035322;28;20804;-82
2022/12/03 00:26:52;;;;;;;33.30;21.10;;;;;;;1.19;97.94;102294.53;1031034;28;20917;-82
2022/12/03 00:27:23;;;;;;;36.58;20.88;;;;;;;1.17;98.08;102296.44;1032139;28;20441;-82
2022/12/03 00:27:55;;;;;;;35.10;20.02;;;;;;;1.16;98.07;102286.88;1031200;28;20357;-82
2022/12/03 00:28:26;;;;;;;36.15;22.58;;;;;;;1.16;98.26;102290.34;1035116;28;20621;-82
2022/12/03 00:28:58;;;;;;;38.17;22.13;;;;;;;1.17;98.12;102291.19;1036082;28;20375;-81
2022/12/03 00:29:29;;;;;;;33.97;22.08;;;;;;;1.18;98.08;102295.47;1035403;28;20305;-82
2022/12/03 00:30:00;;;;;;;35.10;20.33;;;;;;;1.15;98.08;102283.44;1039632;28;20332;-82
2022/12/03 00:30:32;;;;;;;34.65;20.30;;;;;;;1.14;98.37;102294.88;1039147;28;20288;-82
2022/12/03 00:31:04;;;;;;;31.35;20.25;;;;;;;1.16;98.38;102286.88;1032897;28;20305;-82
2022/12/03 00:31:35;;;;;;;33.05;20.60;;;;;;;1.18;98.00;102293.69;1039320;28;20292;-82
2022/12/03 00:32:07;;;;;;;32.70;21.10;;;;;;;1.16;97.89;102292.97;1039209;28;20726;-82
2022/12/03 00:32:38;;;;;;;35.00;21.73;;;;;;;1.18;98.48;102293.69;1033448;28;20289;-82
2022/12/03 00:33:10;;;;;;;33.38;19.58;;;;;;;1.17;98.96;102292.00;1034959;28;20901;-82
2022/12/03 00:33:41;;;;;;;33.72;22.27;;;;;;;1.18;98.45;102292.84;1035258;28;20383;-81
2022/12/03 00:34:13;;;;;;;33.58;21.35;;;;;;;1.17;98.42;102293.81;1035513;28;20945;-82
2022/12/03 00:34:44;;;;;;;40.67;22.05;;;;;;;1.19;98.38;102291.91;1039180;28;20311;-82
2022/12/03 00:35:16;;;;;;;35.35;20.58;;;;;;;1.18;98.11;102287.59;1031133;28;20428;-82
2022/12/03 00:35:48;;;;;;;35.42;20.73;;;;;;;1.19;98.72;102290.09;1027435;28;20373;-82
2022/12/03 00:36:19;;;;;;;37.33;20.70;;;;;;;1.19;98.68;102294.53;1026801;28;20388;-81
2022/12/03 00:36:51;;;;;;;36.55;22.95;;;;;;;1.20;98.87;102293.56;1029687;28;20769;-82
2022/12/03 00:37:22;;;;;;;33.20;20.70;;;;;;;1.21;98.92;102300.47;1028258;28;20297;-82
2022/12/03 00:37:54;;;;;;;35.15;20.63;;;;;;;1.20;98.55;102288.31;1034594;28;20383;-82
2022/12/03 00:38:26;;;;;;;36.45;23.65;;;;;;;1.19;98.79;102295.34;1035823;28;20304;-82
2022/12/03 00:38:57;;;;;;;36.42;20.88;;;;;;;1.20;99.27;102290.94;1039506;28;20385;-82
2022/12/03 00:39:29;;;;;;;35.65;20.83;;;;;;;1.20;98.86;102288.31;1036015;28;20308;-82
2022/12/03 00:40:03;;;;;;;35.83;21.83;;;;;;;1.19;98.93;102292.72;1035136;28;20667;-82
2022/12/03 00:40:34;;;;;;;35.50;20.45;;;;;;;1.21;99.11;102279.50;1031309;28;20289;-82
2022/12/03 00:41:06;;;;;;;36.33;23.30;;;;;;;1.22;99.28;102286.41;1031934;28;20699;-82
2022/12/03 00:41:37;;;;;;;36.35;21.00;;;;;;;1.19;98.83;102276.16;1024469;28;20784;-82
2022/12/03 00:42:09;;;;;;;37.55;22.88;;;;;;;1.16;98.84;102281.63;1023494;28;20394;-82
2022/12/03 00:42:40;;;;;;;35.90;21.45;;;;;;;1.13;98.70;102282.72;1027783;28;20385;-82
2022/12/03 00:43:12;;;;;;;35.30;21.50;;;;;;;1.13;98.86;102279.25;1026929;28;20381;-82
2022/12/03 00:43:43;;;;;;;35.22;21.10;;;;;;;1.14;99.18;102279.13;1030859;28;20305;-82
2022/12/03 00:44:15;;;;;;;36.88;20.52;;;;;;;1.14;99.31;102288.81;1031347;28;20392;-82
2022/12/03 00:44:47;;;;;;;35.15;21.55;;;;;;;1.15;99.17;102280.81;1032152;28;20313;-82
2022/12/03 00:45:18;;;;;;;37.13;21.05;;;;;;;1.14;99.03;102276.50;1031500;28;20384;-82
2022/12/03 00:45:50;;;;;;;36.65;21.35;;;;;;;1.17;99.30;102284.16;1031352;28;20392;-82
2022/12/03 00:46:23;;;;;;;36.42;22.50;;;;;;;1.18;99.01;102279.72;1030630;28;20343;-82
2022/12/03 00:46:54;;;;;;;39.60;22.38;;;;;;;1.16;99.20;102282.47;1032522;28;20368;-82
2022/12/03 00:47:26;;;;;;;33.85;20.30;;;;;;;1.15;99.51;102279.97;1032125;28;20695;-82
2022/12/03 00:47:57;;;;;;;38.42;21.52;;;;;;;1.13;99.63;102282.72;1030719;28;20388;-82
2022/12/03 00:48:29;;;;;;;36.20;19.80;;;;;;;1.11;99.40;102283.78;1026935;28;20381;-82
2022/12/03 00:49:01;;;;;;;35.30;22.90;;;;;;;1.14;99.39;102289.63;1024602;28;20299;-82
2022/12/03 00:49:33;;;;;;;36.55;21.50;;;;;;;1.11;99.44;102284.63;1031388;28;20463;-82
2022/12/03 00:50:05;;;;;;;35.83;20.17;;;;;;;1.11;99.09;102278.53;1031549;28;20428;-82
2022/12/03 00:50:37;;;;;;;32.97;20.27;;;;;;;1.10;99.52;102271.63;1031607;28;20392;-82
2022/12/03 00:51:08;;;;;;;32.67;19.92;;;;;;;1.09;99.46;102277.78;1026264;28;20286;-82
2022/12/03 00:51:40;;;;;;;35.67;21.50;;;;;;;1.11;99.60;102286.41;1027146;28;20301;-81
2022/12/03 00:52:11;;;;;;;34.25;20.95;;;;;;;1.10;99.61;102277.72;1026968;28;20380;-82
2022/12/03 00:52:43;;;;;;;32.85;20.13;;;;;;;1.08;99.83;102279.59;1029243;28;20342;-82
2022/12/03 00:53:14;;;;;;;36.63;22.42;;;;;;;1.09;99.44;102288.28;1027599;28;20448;-82
2022/12/03 00:53:46;;;;;;;34.22;20.15;;;;;;;1.11;99.53;102278.53;1031165;28;20307;-81
2022/12/03 00:54:17;;;;;;;38.42;22.25;;;;;;;1.12;99.55;102285.47;1027712;28;20693;-81
2022/12/03 00:54:48;;;;;;;39.28;22.27;;;;;;;1.14;100.00;102279.13;1031673;28;20376;-82
2022/12/03 00:55:21;;;;;;;36.00;20.67;;;;;;;1.14;99.79;102284.38;1039417;28;20292;-82
2022/12/03 00:55:52;;;;;;;33.35;22.05;;;;;;;1.15;99.75;102287.84;1033069;28;20313;-81
2022/12/03 00:56:23;;;;;;;36.95;22.05;;;;;;;1.15;100.00;102286.06;1038861;28;20331;-82
2022/12/03 00:56:55;;;;;;;40.05;23.02;;;;;;;1.14;99.68;102289.63;1031267;28;20341;-82
2022/12/03 00:57:27;;;;;;;36.13;22.02;;;;;;;1.13;99.88;102289.75;1028930;28;20305;-82
2022/12/03 00:57:58;;;;;;;36.92;22.23;;;;;;;1.13;100.00;102281.88;1030837;28;20305;-82
2022/12/03 00:58:29;;;;;;;35.90;21.75;;;;;;;1.11;99.69;102287.25;1028043;28;20392;-82
2022/12/03 00:59:01;;;;;;;33.70;19.33;;;;;;;1.11;99.88;102284.63;1024981;28;20657;-82
2022/12/03 00:59:32;;;;;;;34.47;21.88;;;;;;;1.13;99.42;102287.13;1026930;28;20535;-82
2022/12/03 01:00:05;;;;;;;37.25;22.38;;;;;;;1.11;99.56;102282.00;1023827;28;20303;-82
2022/12/03 01:00:36;;;;;;;35.00;21.02;;;;;;;1.14;99.77;102284.38;1026196;28;20348;-81
2022/12/03 01:01:08;;;;;;;35.60;20.73;;;;;;;1.15;99.55;102286.06;1035078;28;20316;-81
2022/12/03 01:01:39;;;;;;;37.10;22.52;;;;;;;1.16;100.00;102282.47;1035991;28;20391;-82
2022/12/03 01:02:11;;;;;;;36.35;22.95;;;;;;;1.17;99.94;102284.16;1043391;28;20791;-82
2022/12/03 01:02:43;;;;;;;36.10;22.67;;;;;;;1.18;100.00;102279.72;1034171;28;20304;-82
2022/12/03 01:03:14;;;;;;;37.33;21.75;;;;;;;1.16;99.81;102287.72;1030817;28;20518;-82
2022/12/03 01:03:46;;;;;;;35.10;20.17;;;;;;;1.14;99.77;102286.19;1031119;28;20333;-82
2022/12/03 01:04:17;;;;;;;36.97;22.88;;;;;;;1.15;99.65;102279.97;1033005;28;20372;-82
2022/12/03 01:04:49;;;;;;;35.15;21.55;;;;;;;1.13;100.00;102281.88;1034764;28;20305;-82
2022/12/03 01:05:21;;;;;;;42.97;23.05;;;;;;;1.12;100.00;102286.28;1034491;28;20300;-82
2022/12/03 01:05:52;;;;;;;35.72;21.13;;;;;;;1.12;100.00;102280.22;1031466;28;20802;-82
2022/12/03 01:06:24;;;;;;;34.17;21.70;;;;;;;1.12;100.00;102281.03;1035381;28;20900;-82
2022/12/03 01:06:55;;;;;;;36.85;22.23;;;;;;;1.13;100.00;102282.72;1038730;28;20319;-82
2022/12/03 01:07:27;;;;;;;38.45;22.88;;;;;;;1.16;100.00;102287.72;1034916;28;20869;-81
2022/12/03 01:07:58;;;;;;;41.88;21.38;;;;;;;1.13;100.00;102284.50;1031034;28;20400;-82
2022/12/03 01:08:30;;;;;;;33.95;20.30;;;;;;;1.11;100.00;102279.38;1027147;28;20923;-82
2022/12/03 01:09:01;;;;;;;35.28;21.73;;;;;;;1.12;100.00;102283.66;1028242;28;20311;-82
2022/12/03 01:09:33;;;;;;;39.00;21.35;;;;;;;1.12;100.00;102277.59;1032686;28;20293;-82
2022/12/03 01:10:05;;;;;;;38.75;23.73;;;;;;;1.14;100.00;102278.31;1039119;28;20311;-82
2022/12/03 01:10:37;;;;;;;36.80;22.58;;;;;;;1.17;100.00;102284.16;1035408;28;20821;-81
2022/12/03 01:11:36;;;;;;;35.05;21.27;;;;;;;1.17;100.00;102278.06;1034789;28;20299;-82
2022/12/03 01:12:00;;;;;;;36.22;21.80;;;;;;;1.16;100.00;102276.38;1034320;28;20351;-82
2022/12/03 01:12:31;;;;;;;33.97;20.83;;;;;;;1.16;100.00;102279.00;1038094;28;20712;-82
2022/12/03 01:13:03;;;;;;;35.72;21.65;;;;;;;1.16;100.00;102279.00;1042270;28;20291;-81
2022/12/03 01:13:34;;;;;;;38.20;22.67;;;;;;;1.19;100.00;102273.53;1039937;28;20295;-82
2022/12/03 01:14:09;;;;;;;37.33;22.25;;;;;;;1.19;100.00;102276.16;1039000;28;20296;-82
2022/12/03 01:14:40;;;;;;;36.38;23.08;;;;;;;1.19;100.00;102276.16;1033333;28;20346;-82
2022/12/03 01:15:12;;;;;;;37.13;22.15;;;;;;;1.19;100.00;102282.22;1031430;28;20412;-82
2022/12/03 01:15:43;;;;;;;38.95;21.70;;;;;;;1.17;100.00;102284.16;1032104;28;20301;-82
2022/12/03 01:16:15;;;;;;;39.90;22.30;;;;;;;1.18;100.00;102283.19;1031775;28;20309;-81
2022/12/03 01:16:47;;;;;;;36.45;21.35;;;;;;;1.17;100.00;102283.31;1031278;28;20492;-82
2022/12/03 01:17:18;;;;;;;34.25;20.50;;;;;;;1.14;100.00;102279.13;1031304;28;20336;-81
2022/12/03 01:17:50;;;;;;;39.53;22.50;;;;;;;1.14;100.00;102281.75;1027891;28;20380;-81
2022/12/03 01:18:21;;;;;;;35.88;21.80;;;;;;;1.16;100.00;102286.88;1031339;28;20333;-81
2022/12/03 01:18:53;;;;;;;40.22;23.13;;;;;;;1.17;100.00;102283.31;1028764;28;20401;-82
2022/12/03 01:19:25;;;;;;;38.83;23.02;;;;;;;1.17;100.00;102280.69;1031857;28;20376;-81
2022/12/03 01:19:57;;;;;;;37.08;21.98;;;;;;;1.17;100.00;102280.69;1034933;28;20804;-81
2022/12/03 01:20:29;;;;;;;36.65;21.92;;;;;;;1.17;100.00;102283.31;1032907;28;20308;-82
2022/12/03 01:21:00;;;;;;;35.35;20.30;;;;;;;1.17;100.00;102289.41;1030936;28;20387;-81
2022/12/03 01:21:32;;;;;;;39.00;21.15;;;;;;;1.18;100.00;102279.72;1032916;28;20297;-81
2022/12/03 01:22:04;;;;;;;35.05;21.98;;;;;;;1.18;100.00;102285.81;1032260;28;20301;-81
2022/12/03 01:22:35;;;;;;;38.28;21.60;;;;;;;1.20;100.00;102283.06;1033120;28;20552;-82
2022/12/03 01:23:07;;;;;;;37.53;21.95;;;;;;;1.20;100.00;102280.44;1039185;28;20843;-81
2022/12/03 01:23:38;;;;;;;34.28;21.10;;;;;;;1.20;100.00;102286.53;1039826;28;20304;-81
2022/12/03 01:24:10;;;;;;;35.28;21.45;;;;;;;1.22;100.00;102282.00;1040796;28;20785;-82
2022/12/03 01:24:42;;;;;;;40.40;22.70;;;;;;;1.21;100.00;102282.13;1039788;28;20296;-82
2022/12/03 01:25:14;;;;;;;37.88;22.48;;;;;;;1.20;100.00;102276.03;1032565;28;20305;-81
2022/12/03 01:25:45;;;;;;;37.25;23.20;;;;;;;1.21;100.00;102279.50;1032505;28;20325;-81
2022/12/03 01:26:17;;;;;;;35.22;20.52;;;;;;;1.20;100.00;102283.06;1040366;28;20295;-81
2022/12/03 01:26:48;;;;;;;35.53;20.88;;;;;;;1.19;100.00;102271.72;1044509;28;20442;-81
2022/12/03 01:27:20;;;;;;;40.80;23.23;;;;;;;1.19;100.00;102279.59;1048009;28;20436;-81
2022/12/03 01:27:51;;;;;;;34.63;21.75;;;;;;;1.17;100.00;102275.44;1044200;28;20437;-81
2022/12/03 01:28:23;;;;;;;35.20;20.70;;;;;;;1.18;100.00;102280.56;1035645;28;20328;-81
2022/12/03 01:28:54;;;;;;;37.83;21.70;;;;;;;1.19;100.00;102282.22;1032231;28;20359;-81
2022/12/03 01:29:26;;;;;;;36.03;22.10;;;;;;;1.20;100.00;102283.06;1031848;28;20723;-81
2022/12/03 01:29:57;;;;;;;36.67;21.55;;;;;;;1.20;100.00;102280.44;1036757;28;20289;-81
2022/12/03 01:32:15;;;;;;;41.55;22.85;;;;;;;1.22;100.00;102279.38;1040273;28;20341;-81
2022/12/03 01:32:15;;;;;;;34.78;22.02;;;;;;;1.21;100.00;102279.50;1032876;28;20297;-81
2022/12/03 01:32:47;;;;;;;36.80;21.98;;;;;;;1.20;100.00;102283.06;1030982;28;20380;-81
2022/12/03 01:33:18;;;;;;;38.63;21.42;;;;;;;1.20;100.00;102275.19;1030099;28;20341;-80
2022/12/03 01:33:49;;;;;;;37.13;21.92;;;;;;;1.21;100.00;102285.56;1025122;28;20381;-81
2022/12/03 01:34:21;;;;;;;35.80;22.05;;;;;;;1.21;100.00;102275.06;1028587;28;20336;-80
2022/12/03 01:34:54;;;;;;;39.80;22.48;;;;;;;1.23;100.00;102282.81;1028128;28;20298;-80
2022/12/03 01:35:26;;;;;;;37.75;21.30;;;;;;;1.21;100.00;102279.50;1022797;28;20303;-81
2022/12/03 01:35:57;;;;;;;35.85;22.52;;;;;;;1.21;100.00;102282.13;1025104;28;20817;-81
2022/12/03 01:36:29;;;;;;;39.47;21.98;;;;;;;1.21;100.00;102282.13;1028367;28;20393;-81
2022/12/03 01:37:01;;;;;;;38.13;22.17;;;;;;;1.19;100.00;102274.34;1024362;28;20342;-81
2022/12/03 01:37:32;;;;;;;38.83;21.83;;;;;;;1.18;100.00;102279.72;1023986;28;20310;-81
2022/12/03 01:38:04;;;;;;;37.55;21.92;;;;;;;1.18;100.00;102279.72;1027119;28;20389;-81
2022/12/03 01:38:35;;;;;;;39.92;22.90;;;;;;;1.18;100.00;102279.72;1028580;28;20780;-81
2022/12/03 01:39:07;;;;;;;37.47;20.58;;;;;;;1.17;100.00;102272.81;1028152;28;20306;-81
2022/12/03 01:39:39;;;;;;;38.55;21.17;;;;;;;1.19;100.00;102276.16;1028173;28;20337;-80
2022/12/03 01:40:12;;;;;;;36.72;21.63;;;;;;;1.20;100.00;102275.19;1032573;28;20293;-81
2022/12/03 01:40:44;;;;;;;38.20;20.13;;;;;;;1.21;100.00;102274.25;1030602;28;20294;-80
2022/12/03 01:41:16;;;;;;;32.13;20.75;;;;;;;1.21;100.00;102275.06;1032286;28;20436;-81
2022/12/03 01:41:49;;;;;;;40.20;22.77;;;;;;;1.22;100.00;102278.53;1034779;28;20758;-80
2022/12/03 01:42:27;;;;;;;38.97;22.05;;;;;;;1.23;100.00;102273.16;1032732;28;20820;-81
2022/12/03 01:42:58;;;;;;;39.80;23.52;;;;;;;1.24;100.00;102274.00;1033659;28;20364;-81
2022/12/03 01:43:30;;;;;;;40.28;24.80;;;;;;;1.24;100.00;102274.00;1029352;28;20361;-80
2022/12/03 01:44:03;;;;;;;39.33;24.30;;;;;;;1.28;100.00;102278.03;1027553;28;20708;-81
2022/12/03 01:44:36;;;;;;;44.28;23.23;;;;;;;1.28;100.00;102270.16;1028028;28;20384;-81
2022/12/03 01:45:20;;;;;;;36.88;22.50;;;;;;;1.31;100.00;102274.34;1032276;28;20886;-81
2022/12/03 01:45:51;;;;;;;38.63;21.15;;;;;;;1.30;100.00;102273.50;1036165;28;20340;-81
2022/12/03 01:46:36;;;;;;;33.15;21.10;;;;;;;1.30;100.00;102272.66;1035635;28;20810;-81
2022/12/03 01:47:12;;;;;;;40.63;21.92;;;;;;;1.27;100.00;102268.50;1031960;28;20388;-81
2022/12/03 01:47:44;;;;;;;36.60;22.77;;;;;;;1.27;100.00;102275.53;1032071;28;20791;-81
2022/12/03 01:48:16;;;;;;;37.45;21.30;;;;;;;1.26;100.00;102277.34;1026308;28;20372;-81
2022/12/03 01:48:49;;;;;;;40.47;21.33;;;;;;;1.23;100.00;102267.91;1024838;28;20302;-81
2022/12/03 01:49:25;;;;;;;33.40;20.20;;;;;;;1.22;100.00;102265.41;1025348;28;20950;-81
2022/12/03 01:50:19;;;;;;;32.25;20.83;;;;;;;1.19;100.00;102266.47;1027459;28;20352;-80
2022/12/03 01:50:51;;;;;;;38.38;22.35;;;;;;;1.21;100.00;102274.25;1031831;28;20328;-81
2022/12/03 01:51:22;;;;;;;38.80;22.08;;;;;;;1.20;100.00;102268.16;1031696;28;20304;-81
2022/12/03 01:51:55;;;;;;;38.60;22.13;;;;;;;1.23;100.00;102267.06;1037826;28;20369;-81
2022/12/03 01:52:30;;;;;;;41.78;23.67;;;;;;;1.22;100.00;102270.66;1036084;28;20296;-81
2022/12/03 01:53:03;;;;;;;39.65;23.30;;;;;;;1.23;100.00;102262.66;1036903;28;20372;-81
2022/12/03 01:53:35;;;;;;;40.15;22.02;;;;;;;1.23;100.00;102267.91;1036747;28;20336;-81
2022/12/03 01:54:15;;;;;;;40.88;22.50;;;;;;;1.23;100.00;102267.06;1032858;28;20305;-81
2022/12/03 01:54:49;;;;;;;36.45;21.05;;;;;;;1.20;100.00;102267.31;1027556;28;20699;-81
2022/12/03 01:55:23;;;;;;;38.97;23.30;;;;;;;1.21;100.00;102266.38;1031273;28;20375;-81
2022/12/03 01:55:54;;;;;;;37.05;22.08;;;;;;;1.21;100.00;102263.75;1032114;28;20762;-81
2022/12/03 01:56:26;;;;;;;42.15;23.83;;;;;;;1.23;100.00;102272.31;1028506;28;20453;-81
2022/12/03 01:56:58;;;;;;;33.90;22.27;;;;;;;1.23;100.00;102260.03;1032269;28;20663;-81
2022/12/03 01:57:39;;;;;;;41.08;24.38;;;;;;;1.20;100.00;102267.31;1032527;28;20289;-81
2022/12/03 01:58:13;;;;;;;45.70;23.80;;;;;;;1.24;100.00;102266.13;1036312;28;20347;-81
2022/12/03 01:58:45;;;;;;;41.78;23.67;;;;;;;1.23;100.00;102269.69;1031578;28;20632;-81
2022/12/03 01:59:18;;;;;;;40.48;24.62;;;;;;;1.25;100.00;102267.78;1026029;28;20855;-81
2022/12/03 01:59:51;;;;;;;42.88;23.77;;;;;;;1.27;100.00;102271.13;1027630;28;20042;-81
2022/12/03 02:00:25;;;;;;;37.55;22.08;;;;;;;1.24;100.00;102264.31;1030826;28;20369;-81
2022/12/03 02:01:00;;;;;;;40.05;23.23;;;;;;;1.26;100.00;102266.84;1023599;28;20828;-81
2022/12/03 02:01:32;;;;;;;39.90;22.38;;;;;;;1.21;100.00;102263.75;1023884;28;20306;-81
2022/12/03 02:02:11;;;;;;;39.10;21.95;;;;;;;1.20;100.00;102262.06;1027630;28;20337;-81
2022/12/03 02:02:44;;;;;;;37.25;21.77;;;;;;;1.21;100.00;102264.56;1031576;28;20398;-81
2022/12/03 02:03:18;;;;;;;35.53;23.63;;;;;;;1.22;100.00;102258.38;1033367;28;20388;-81
2022/12/03 02:03:50;;;;;;;36.42;22.13;;;;;;;1.23;100.00;102264.44;1032094;28;20664;-81
2022/12/03 02:04:22;;;;;;;41.78;23.45;;;;;;;1.25;100.00;102259.91;1032045;28;20683;-79
2022/12/03 02:04:55;;;;;;;33.88;20.88;;;;;;;1.24;100.00;102263.50;1029238;28;20312;-81
2022/12/03 02:05:30;;;;;;;33.88;22.20;;;;;;;1.22;100.00;102261.00;1032436;28;20312;-80
2022/12/03 02:06:02;;;;;;;38.65;22.85;;;;;;;1.24;100.00;102263.50;1033111;28;20656;-81
2022/12/03 02:06:33;;;;;;;37.92;21.42;;;;;;;1.26;100.00;102264.22;1036843;28;20304;-80
2022/12/03 02:07:32;;;;;;;38.92;22.00;;;;;;;1.24;100.00;102258.25;1032914;28;20883;-80
2022/12/03 02:08:28;;;;;;;36.85;23.23;;;;;;;1.25;100.00;102265.16;1037017;28;20309;-81
2022/12/03 02:08:59;;;;;;;37.53;22.20;;;;;;;1.23;100.00;102256.56;1033469;28;20425;-80
2022/12/03 02:09:31;;;;;;;40.95;22.48;;;;;;;1.21;100.00;102261.13;1031330;28;20723;-80
2022/12/03 02:10:03;;;;;;;39.20;22.63;;;;;;;1.23;100.00;102264.44;1033303;28;20435;-80
2022/12/03 02:10:36;;;;;;;37.10;23.35;;;;;;;1.19;100.00;102268.28;1026927;28;20302;-81
2022/12/03 02:11:29;;;;;;;38.08;22.98;;;;;;;1.23;100.00;102262.66;1031504;28;20736;-81
2022/12/03 02:12:00;;;;;;;40.38;22.85;;;;;;;1.27;100.00;102258.00;1035348;28;20318;-80
2022/12/03 02:12:38;;;;;;;39.22;21.85;;;;;;;1.29;100.00;102263.97;1038711;28;20296;-80
2022/12/03 02:13:10;;;;;;;41.13;22.73;;;;;;;1.28;100.00;102264.91;1035774;28;20308;-80
2022/12/03 02:13:42;;;;;;;39.83;23.60;;;;;;;1.30;100.00;102263.00;1035616;28;20365;-80
2022/12/03 02:14:19;;;;;;;38.80;22.90;;;;;;;1.30;100.00;102263.00;1036327;28;20391;-80
2022/12/03 02:14:51;;;;;;;35.88;22.20;;;;;;;1.33;100.00;102260.13;1033586;28;20372;-80
2022/12/03 02:15:23;;;;;;;37.97;22.33;;;;;;;1.34;100.00;102256.56;1037317;28;20296;-81
2022/12/03 02:15:54;;;;;;;35.00;24.30;;;;;;;1.34;100.00;102259.19;1037250;28;20304;-81
2022/12/03 02:16:26;;;;;;;34.38;21.70;;;;;;;1.32;100.00;102255.84;1031743;28;20309;-80
2022/12/03 02:16:59;;;;;;;37.20;23.42;;;;;;;1.26;100.00;102256.34;1035407;28;20300;-81
2022/12/03 02:17:30;;;;;;;36.58;24.00;;;;;;;1.29;100.00;102268.38;1025796;28;20305;-81
2022/12/03 02:18:02;;;;;;;35.53;22.63;;;;;;;1.33;100.00;102260.13;1028344;28;20708;-80
2022/12/03 02:18:34;;;;;;;41.85;22.95;;;;;;;1.31;100.00;102264.69;1027954;28;20317;-81
2022/12/03 02:19:23;;;;;;;38.05;23.58;;;;;;;1.31;100.00;102262.06;1030244;28;20855;-80
2022/12/03 02:19:55;;;;;;;38.60;22.85;;;;;;;1.29;100.00;102252.63;1038626;28;20295;-81
2022/12/03 02:20:26;;;;;;;34.10;21.85;;;;;;;1.30;100.00;102263.00;1038549;28;20353;-80
2022/12/03 02:21:08;;;;;;;35.10;23.40;;;;;;;1.31;100.00;102254.19;1027139;28;20377;-81
2022/12/03 02:22:06;;;;;;;39.42;22.55;;;;;;;1.29;99.82;102261.34;1025645;28;20303;-81
2022/12/03 02:23:06;;;;;;;35.65;22.35;;;;;;;1.29;100.00;102252.63;1027607;28;20807;-82
2022/12/03 02:23:56;;;;;;;37.10;21.88;;;;;;;1.25;100.00;102259.91;1038452;28;20375;-82
2022/12/03 02:24:35;;;;;;;47.13;23.42;;;;;;;1.29;100.00;102260.50;1038518;28;20308;-82
2022/12/03 02:25:22;;;;;;;37.30;23.73;;;;;;;1.29;99.84;102258.72;1031981;28;20042;-81
2022/12/03 02:25:54;;;;;;;42.95;22.48;;;;;;;1.28;99.78;102259.66;1028804;28;20392;-82
2022/12/03 02:26:25;;;;;;;36.92;23.17;;;;;;;1.30;99.82;102257.75;1030668;28;20372;-82
2022/12/03 02:26:57;;;;;;;39.45;22.77;;;;;;;1.31;99.74;102261.22;1034201;28;20328;-82
2022/12/03 02:27:28;;;;;;;40.55;24.90;;;;;;;1.26;99.86;102266.84;1035929;28;20308;-82
2022/12/03 02:28:00;;;;;;;35.08;20.50;;;;;;;1.25;99.37;102252.03;1036441;28;20292;-82
2022/12/03 02:28:32;;;;;;;34.25;22.92;;;;;;;1.29;99.75;102266.59;1033614;28;20339;-81
2022/12/03 02:29:03;;;;;;;37.55;23.50;;;;;;;1.30;100.00;102257.75;1024549;28;20389;-82
2022/12/03 02:29:35;;;;;;;42.25;23.95;;;;;;;1.32;99.63;102266.34;1027725;28;20350;-82
2022/12/03 02:30:08;;;;;;;38.40;25.20;;;;;;;1.30;99.32;102257.75;1026570;28;20381;-82
2022/12/03 02:30:40;;;;;;;41.47;24.48;;;;;;;1.33;99.70;102264.56;1032520;28;20440;-81
2022/12/03 02:31:11;;;;;;;39.50;23.63;;;;;;;1.29;99.16;102250.84;1032917;28;20352;-82
2022/12/03 02:31:43;;;;;;;34.53;22.40;;;;;;;1.28;99.25;102259.66;1035655;28;20293;-81